createdAt,value
2018-12-24T00:07:50.432Z,4
2018-12-24T00:17:57.543Z,3
2018-12-24T00:28:06.005Z,4
2018-12-24T00:38:12.524Z,2
2018-12-24T00:48:22.106Z,3
2018-12-24T00:58:29.468Z,3
2018-12-24T01:08:36.521Z,5
2018-12-24T01:18:45.689Z,1
2018-12-24T01:25:02.522Z,6
2018-12-24T01:35:09.819Z,2
2018-12-24T01:45:18.258Z,4
2018-12-24T01:55:26.152Z,2
2018-12-24T02:05:32.871Z,4
2018-12-24T02:15:37.550Z,1
2018-12-24T02:25:46.968Z,3
2018-12-24T02:35:56.416Z,2
2018-12-24T02:46:03.617Z,2
2018-12-24T02:56:12.864Z,2
2018-12-24T03:06:20.395Z,4
2018-12-24T03:13:37.336Z,5
2018-12-24T03:23:43.984Z,3
2018-12-24T03:33:54.299Z,3
2018-12-24T03:44:01.533Z,1
2018-12-24T03:54:09.868Z,3
2018-12-24T04:04:17.794Z,2
2018-12-24T04:14:26.612Z,3
2018-12-24T04:24:32.988Z,2
2018-12-24T04:34:40.053Z,2
2018-12-24T04:44:49.173Z,4
2018-12-24T04:54:56.561Z,14
2018-12-24T05:05:02.750Z,4
2018-12-24T05:15:15.153Z,2
2018-12-24T05:25:21.464Z,3
2018-12-24T05:35:28.800Z,1
2018-12-24T05:45:37.048Z,1
2018-12-24T05:55:44.092Z,4
2018-12-24T06:05:53.379Z,2
2018-12-24T06:15:59.357Z,3
2018-12-24T06:21:15.438Z,3
2018-12-24T06:31:21.693Z,2
2018-12-24T06:41:29.793Z,2
2018-12-24T06:44:44.284Z,3
2018-12-24T06:54:52.917Z,5
2018-12-24T07:05:00.762Z,2
2018-12-24T07:11:29.779Z,3
2018-12-24T07:21:35.166Z,4
2018-12-24T07:31:42.228Z,7
2018-12-24T07:41:48.792Z,4
2018-12-24T07:45:03.181Z,2
2018-12-24T07:56:26.012Z,5
2018-12-24T08:06:32.324Z,3
2018-12-24T08:16:40.017Z,4
2018-12-24T08:26:46.406Z,3
2018-12-24T08:36:54.929Z,2
2018-12-24T08:47:01.723Z,2
2018-12-24T08:57:08.937Z,5
2018-12-24T09:07:17.218Z,2
2018-12-24T09:17:26.858Z,5
2018-12-24T09:27:33.850Z,5
2018-12-24T09:37:42.596Z,5
2018-12-24T09:43:03.689Z,3
2018-12-24T09:53:05.707Z,2
2018-12-24T10:03:11.578Z,2
2018-12-24T10:13:18.219Z,1
2018-12-24T10:23:28.972Z,5
2018-12-24T10:33:35.966Z,2
2018-12-24T10:43:47.742Z,3
2018-12-24T10:53:57.665Z,4
2018-12-24T11:04:04.863Z,3
2018-12-24T11:09:25.619Z,4
2018-12-24T11:17:44.328Z,9
2018-12-24T11:27:46.364Z,4
2018-12-24T11:37:54.886Z,5
2018-12-24T11:43:16.011Z,5
2018-12-24T11:53:20.139Z,15
2018-12-24T12:03:28.568Z,4
2018-12-24T12:13:48.444Z,4
2018-12-24T12:22:13.647Z,4
2018-12-24T12:23:24.667Z,4
2018-12-24T12:33:32.169Z,3
2018-12-24T12:43:40.330Z,4
2018-12-24T12:44:51.182Z,5
2018-12-24T12:54:56.745Z,4
2018-12-24T13:05:03.208Z,3
2018-12-24T13:15:12.095Z,5
2018-12-24T13:23:34.978Z,3
2018-12-24T13:25:37.339Z,3
2018-12-24T13:35:39.376Z,3
2018-12-24T13:45:25.994Z,4
2018-12-24T13:55:01.526Z,3
2018-12-24T14:05:22.416Z,4
2018-12-24T14:15:07.529Z,4
2018-12-24T14:25:11.296Z,3
2018-12-24T14:35:07.835Z,4
2018-12-24T14:43:25.024Z,3
2018-12-24T14:48:22.265Z,5
2018-12-24T14:49:34.376Z,2
2018-12-24T14:59:37.682Z,3
2018-12-24T15:09:43.316Z,3
2018-12-24T15:19:51.220Z,4
2018-12-24T15:29:57.421Z,3
2018-12-24T15:40:08.512Z,4
2018-12-24T15:47:26.783Z,7
2018-12-24T15:57:34.521Z,3
2018-12-24T16:07:40.196Z,5
2018-12-24T16:17:46.172Z,5
2018-12-24T16:27:53.079Z,5
2018-12-24T16:37:57.782Z,7
2018-12-24T16:48:03.034Z,4
2018-12-24T16:54:20.217Z,5
2018-12-24T17:04:27.719Z,7
2018-12-24T17:14:34.712Z,7
2018-12-24T17:24:46.698Z,10
2018-12-24T17:34:55.633Z,11
2018-12-24T17:45:04.842Z,8
2018-12-24T17:55:10.402Z,9
2018-12-24T18:05:16.614Z,12
2018-12-24T18:15:25.260Z,8
2018-12-24T18:25:34.083Z,7
2018-12-24T18:35:40.737Z,7
2018-12-24T18:45:47.014Z,10
2018-12-24T18:55:53.457Z,7
2018-12-24T19:06:00.530Z,8
2018-12-24T19:16:06.870Z,10
2018-12-24T19:18:19.861Z,10
2018-12-24T19:28:28.821Z,9
2018-12-24T19:38:34.253Z,9
2018-12-24T19:48:41.247Z,12
2018-12-24T19:58:47.793Z,8
2018-12-24T20:08:53.784Z,7
2018-12-24T20:19:01.447Z,9
2018-12-24T20:29:09.219Z,9
2018-12-24T20:39:16.335Z,10
2018-12-24T20:49:25.942Z,8
2018-12-24T20:59:33.826Z,10
2018-12-24T21:09:39.827Z,11
2018-12-24T21:19:48.652Z,14
2018-12-24T21:29:54.213Z,11
2018-12-24T21:40:01.758Z,9
2018-12-24T21:50:08.953Z,12
2018-12-24T22:00:14.958Z,10
2018-12-24T22:10:22.522Z,12
2018-12-24T22:20:26.543Z,17
2018-12-24T22:30:33.333Z,15
2018-12-24T22:40:42.162Z,12
2018-12-24T22:50:48.941Z,13
2018-12-24T23:00:55.051Z,11
2018-12-24T23:11:02.581Z,13
2018-12-24T23:21:11.553Z,15
2018-12-24T23:31:21.404Z,11
2018-12-24T23:41:28.254Z,12
2018-12-24T23:51:35.352Z,12
